CheckWX is a tool to help pilots better visualize weather data.  It is not intended as a substitute for an official pre-flight weather briefing.

14:25:45 UTC

KDKX METAR
Knoxville Downtown Island Airport
Knoxville, Tennessee, USA
Current

51 mins ago

KDKX 161335Z AUTO 00000KT 10SM CLR 26/22 A3016 RMK A01
Observed
Jul-16 @ 13:35 UTC
Visibility
10 SM
Flight Rules
VFR
Cloud Levels
  • Clear skies
Temperature
26°C / 79°F
Dewpoint
22°C / 72°F
Humidity
79%
Altimeter
30.16" Hg
Pressure
1021.32 hPa
Previous

1 hour ago

KDKX 161315Z AUTO 00000KT 10SM CLR 25/22 A3017 RMK A01
Observed
Jul-16 @ 13:15 UTC
Visibility
10 SM
Flight Rules
VFR
Cloud Levels
  • Clear skies
Temperature
25°C / 77°F
Dewpoint
22°C / 72°F
Humidity
83%
Altimeter
30.17" Hg
Pressure
1021.72 hPa
Previous

2 hours ago

KDKX 161255Z AUTO 00000KT 10SM CLR 25/22 A3016 RMK A01
Observed
Jul-16 @ 12:55 UTC
Visibility
10 SM
Flight Rules
VFR
Cloud Levels
  • Clear skies
Temperature
25°C / 77°F
Dewpoint
22°C / 72°F
Humidity
83%
Altimeter
30.16" Hg
Pressure
1021.32 hPa